sensor_id;sensor_type;location;lat;lon;timestamp;P1;durP1;ratioP1;P2;durP2;ratioP2
33254;SDS011;19623;52.482;9.762;2022-12-18T00:01:01;17.60;;;9.02;;
33254;SDS011;19623;52.482;9.762;2022-12-18T00:06:00;20.98;;;9.48;;
33254;SDS011;19623;52.482;9.762;2022-12-18T00:08:25;22.67;;;9.45;;
33254;SDS011;19623;52.482;9.762;2022-12-18T00:10:51;20.25;;;9.20;;
33254;SDS011;19623;52.482;9.762;2022-12-18T00:13:17;20.52;;;9.77;;
33254;SDS011;19623;52.482;9.762;2022-12-18T00:15:42;23.20;;;10.77;;
33254;SDS011;19623;52.482;9.762;2022-12-18T00:18:08;24.10;;;10.98;;
33254;SDS011;19623;52.482;9.762;2022-12-18T00:20:38;23.10;;;10.38;;
33254;SDS011;19623;52.482;9.762;2022-12-18T00:23:05;27.88;;;10.75;;
33254;SDS011;19623;52.482;9.762;2022-12-18T00:25:34;25.30;;;10.43;;
33254;SDS011;19623;52.482;9.762;2022-12-18T00:28:01;20.27;;;9.48;;
33254;SDS011;19623;52.482;9.762;2022-12-18T00:30:28;20.27;;;9.30;;
33254;SDS011;19623;52.482;9.762;2022-12-18T00:32:53;25.27;;;9.50;;
33254;SDS011;19623;52.482;9.762;2022-12-18T00:35:19;22.17;;;9.25;;
33254;SDS011;19623;52.482;9.762;2022-12-18T00:37:45;19.60;;;9.63;;
33254;SDS011;19623;52.482;9.762;2022-12-18T00:40:11;26.40;;;10.27;;
33254;SDS011;19623;52.482;9.762;2022-12-18T00:42:36;23.33;;;10.45;;
33254;SDS011;19623;52.482;9.762;2022-12-18T00:45:20;23.45;;;9.90;;
33254;SDS011;19623;52.482;9.762;2022-12-18T00:47:47;19.88;;;9.40;;
33254;SDS011;19623;52.482;9.762;2022-12-18T00:50:12;18.52;;;8.82;;
33254;SDS011;19623;52.482;9.762;2022-12-18T00:52:38;21.70;;;9.45;;
33254;SDS011;19623;52.482;9.762;2022-12-18T00:55:05;21.83;;;9.70;;
33254;SDS011;19623;52.482;9.762;2022-12-18T00:57:31;24.67;;;10.32;;
33254;SDS011;19623;52.482;9.762;2022-12-18T00:59:56;19.85;;;9.43;;
33254;SDS011;19623;52.482;9.762;2022-12-18T01:02:22;22.42;;;10.20;;
33254;SDS011;19623;52.482;9.762;2022-12-18T01:04:48;26.38;;;10.88;;
33254;SDS011;19623;52.482;9.762;2022-12-18T01:07:16;19.83;;;8.82;;
33254;SDS011;19623;52.482;9.762;2022-12-18T01:09:41;21.63;;;9.40;;
33254;SDS011;19623;52.482;9.762;2022-12-18T01:12:07;20.08;;;9.40;;
33254;SDS011;19623;52.482;9.762;2022-12-18T01:14:33;20.10;;;9.07;;
33254;SDS011;19623;52.482;9.762;2022-12-18T01:16:58;18.42;;;8.50;;
33254;SDS011;19623;52.482;9.762;2022-12-18T01:19:24;21.10;;;9.82;;
33254;SDS011;19623;52.482;9.762;2022-12-18T01:21:50;21.00;;;9.38;;
33254;SDS011;19623;52.482;9.762;2022-12-18T01:24:15;23.90;;;9.20;;
33254;SDS011;19623;52.482;9.762;2022-12-18T01:26:41;21.30;;;8.60;;
33254;SDS011;19623;52.482;9.762;2022-12-18T01:29:07;19.92;;;9.00;;
33254;SDS011;19623;52.482;9.762;2022-12-18T01:31:33;21.92;;;8.68;;
33254;SDS011;19623;52.482;9.762;2022-12-18T01:34:03;21.08;;;9.13;;
33254;SDS011;19623;52.482;9.762;2022-12-18T01:36:30;22.20;;;9.40;;
33254;SDS011;19623;52.482;9.762;2022-12-18T01:39:03;21.30;;;8.80;;
33254;SDS011;19623;52.482;9.762;2022-12-18T01:41:30;21.23;;;9.95;;
33254;SDS011;19623;52.482;9.762;2022-12-18T01:47:15;19.88;;;8.55;;
33254;SDS011;19623;52.482;9.762;2022-12-18T01:49:46;22.83;;;8.65;;
33254;SDS011;19623;52.482;9.762;2022-12-18T01:52:13;26.73;;;10.20;;
33254;SDS011;19623;52.482;9.762;2022-12-18T01:54:39;19.63;;;8.68;;
33254;SDS011;19623;52.482;9.762;2022-12-18T01:57:05;20.10;;;9.82;;
33254;SDS011;19623;52.482;9.762;2022-12-18T01:59:31;19.73;;;9.30;;
33254;SDS011;19623;52.482;9.762;2022-12-18T02:01:58;22.60;;;8.77;;
33254;SDS011;19623;52.482;9.762;2022-12-18T02:04:26;19.73;;;8.63;;
33254;SDS011;19623;52.482;9.762;2022-12-18T02:06:58;19.38;;;9.30;;
33254;SDS011;19623;52.482;9.762;2022-12-18T02:09:36;20.38;;;8.93;;
33254;SDS011;19623;52.482;9.762;2022-12-18T02:14:58;24.10;;;9.30;;
33254;SDS011;19623;52.482;9.762;2022-12-18T02:17:35;20.42;;;8.93;;
33254;SDS011;19623;52.482;9.762;2022-12-18T02:21:07;20.95;;;9.48;;
33254;SDS011;19623;52.482;9.762;2022-12-18T02:28:26;20.67;;;8.45;;
33254;SDS011;19623;52.482;9.762;2022-12-18T02:30:56;19.35;;;8.77;;
33254;SDS011;19623;52.482;9.762;2022-12-18T02:33:24;17.13;;;8.27;;
33254;SDS011;19623;52.482;9.762;2022-12-18T02:35:52;15.15;;;8.30;;
33254;SDS011;19623;52.482;9.762;2022-12-18T02:38:20;18.23;;;8.38;;
33254;SDS011;19623;52.482;9.762;2022-12-18T02:40:46;20.42;;;8.70;;
33254;SDS011;19623;52.482;9.762;2022-12-18T02:43:14;18.83;;;8.18;;
33254;SDS011;19623;52.482;9.762;2022-12-18T02:45:50;19.15;;;8.10;;
33254;SDS011;19623;52.482;9.762;2022-12-18T02:48:17;15.57;;;7.80;;
33254;SDS011;19623;52.482;9.762;2022-12-18T02:51:10;19.23;;;8.45;;
33254;SDS011;19623;52.482;9.762;2022-12-18T02:53:48;22.17;;;8.73;;
33254;SDS011;19623;52.482;9.762;2022-12-18T02:56:21;18.80;;;8.63;;
33254;SDS011;19623;52.482;9.762;2022-12-18T03:01:39;18.23;;;8.32;;
33254;SDS011;19623;52.482;9.762;2022-12-18T03:04:22;20.25;;;8.70;;
33254;SDS011;19623;52.482;9.762;2022-12-18T03:06:53;21.20;;;8.07;;
33254;SDS011;19623;52.482;9.762;2022-12-18T03:09:24;15.25;;;8.38;;
33254;SDS011;19623;52.482;9.762;2022-12-18T03:12:10;19.45;;;7.88;;
33254;SDS011;19623;52.482;9.762;2022-12-18T03:14:55;18.80;;;8.73;;
33254;SDS011;19623;52.482;9.762;2022-12-18T03:17:28;20.73;;;9.07;;
33254;SDS011;19623;52.482;9.762;2022-12-18T03:19:57;22.55;;;8.52;;
33254;SDS011;19623;52.482;9.762;2022-12-18T03:22:28;17.75;;;7.80;;
33254;SDS011;19623;52.482;9.762;2022-12-18T03:24:57;17.85;;;8.13;;
33254;SDS011;19623;52.482;9.762;2022-12-18T03:27:25;15.50;;;7.75;;
33254;SDS011;19623;52.482;9.762;2022-12-18T03:30:04;21.00;;;8.20;;
33254;SDS011;19623;52.482;9.762;2022-12-18T03:32:39;17.05;;;8.32;;
33254;SDS011;19623;52.482;9.762;2022-12-18T03:35:07;16.75;;;7.57;;
33254;SDS011;19623;52.482;9.762;2022-12-18T03:37:36;17.08;;;8.00;;
33254;SDS011;19623;52.482;9.762;2022-12-18T03:40:03;15.10;;;7.65;;
33254;SDS011;19623;52.482;9.762;2022-12-18T03:42:33;14.90;;;8.30;;
33254;SDS011;19623;52.482;9.762;2022-12-18T03:47:51;17.98;;;7.72;;
33254;SDS011;19623;52.482;9.762;2022-12-18T03:51:01;18.13;;;8.20;;
33254;SDS011;19623;52.482;9.762;2022-12-18T03:55:53;15.98;;;7.70;;
33254;SDS011;19623;52.482;9.762;2022-12-18T03:58:22;22.08;;;8.27;;
33254;SDS011;19623;52.482;9.762;2022-12-18T04:00:50;20.45;;;8.13;;
33254;SDS011;19623;52.482;9.762;2022-12-18T04:03:18;20.95;;;8.50;;
33254;SDS011;19623;52.482;9.762;2022-12-18T04:05:45;18.45;;;8.18;;
33254;SDS011;19623;52.482;9.762;2022-12-18T04:08:15;17.90;;;7.57;;
33254;SDS011;19623;52.482;9.762;2022-12-18T04:10:41;16.63;;;7.80;;
33254;SDS011;19623;52.482;9.762;2022-12-18T04:13:07;18.63;;;8.55;;
33254;SDS011;19623;52.482;9.762;2022-12-18T04:15:34;16.13;;;8.02;;
33254;SDS011;19623;52.482;9.762;2022-12-18T04:18:01;18.33;;;8.10;;
33254;SDS011;19623;52.482;9.762;2022-12-18T04:20:28;17.27;;;8.52;;
33254;SDS011;19623;52.482;9.762;2022-12-18T04:22:54;17.65;;;8.73;;
33254;SDS011;19623;52.482;9.762;2022-12-18T04:25:19;18.45;;;7.95;;
33254;SDS011;19623;52.482;9.762;2022-12-18T04:27:45;20.00;;;8.85;;
33254;SDS011;19623;52.482;9.762;2022-12-18T04:30:11;17.58;;;7.57;;
33254;SDS011;19623;52.482;9.762;2022-12-18T04:32:36;18.73;;;8.40;;
33254;SDS011;19623;52.482;9.762;2022-12-18T04:35:02;16.92;;;7.90;;
33254;SDS011;19623;52.482;9.762;2022-12-18T04:37:29;20.13;;;8.65;;
33254;SDS011;19623;52.482;9.762;2022-12-18T04:39:55;19.33;;;8.60;;
33254;SDS011;19623;52.482;9.762;2022-12-18T04:42:20;14.13;;;7.85;;
33254;SDS011;19623;52.482;9.762;2022-12-18T04:44:46;21.63;;;8.25;;
33254;SDS011;19623;52.482;9.762;2022-12-18T04:47:11;16.58;;;7.90;;
33254;SDS011;19623;52.482;9.762;2022-12-18T04:49:37;15.73;;;7.68;;
33254;SDS011;19623;52.482;9.762;2022-12-18T04:52:03;15.90;;;7.47;;
33254;SDS011;19623;52.482;9.762;2022-12-18T04:54:28;13.38;;;7.10;;
33254;SDS011;19623;52.482;9.762;2022-12-18T04:56:54;14.93;;;7.55;;
33254;SDS011;19623;52.482;9.762;2022-12-18T04:59:20;17.65;;;8.23;;
33254;SDS011;19623;52.482;9.762;2022-12-18T05:01:45;15.35;;;7.22;;
33254;SDS011;19623;52.482;9.762;2022-12-18T05:04:11;16.52;;;6.78;;
33254;SDS011;19623;52.482;9.762;2022-12-18T05:06:36;14.38;;;6.88;;
33254;SDS011;19623;52.482;9.762;2022-12-18T05:09:02;15.48;;;6.35;;
33254;SDS011;19623;52.482;9.762;2022-12-18T05:11:28;13.85;;;7.20;;
33254;SDS011;19623;52.482;9.762;2022-12-18T05:13:53;16.27;;;6.93;;
33254;SDS011;19623;52.482;9.762;2022-12-18T05:16:19;19.33;;;7.40;;
33254;SDS011;19623;52.482;9.762;2022-12-18T05:18:45;18.45;;;7.63;;
33254;SDS011;19623;52.482;9.762;2022-12-18T05:21:10;22.05;;;8.18;;
33254;SDS011;19623;52.482;9.762;2022-12-18T05:23:36;17.30;;;7.47;;
33254;SDS011;19623;52.482;9.762;2022-12-18T05:26:02;18.92;;;7.47;;
33254;SDS011;19623;52.482;9.762;2022-12-18T05:28:30;16.27;;;6.90;;
33254;SDS011;19623;52.482;9.762;2022-12-18T05:30:57;16.88;;;7.40;;
33254;SDS011;19623;52.482;9.762;2022-12-18T05:33:25;19.35;;;7.50;;
33254;SDS011;19623;52.482;9.762;2022-12-18T05:35:52;15.25;;;6.70;;
33254;SDS011;19623;52.482;9.762;2022-12-18T05:38:19;17.40;;;7.78;;
33254;SDS011;19623;52.482;9.762;2022-12-18T05:40:45;15.63;;;7.05;;
33254;SDS011;19623;52.482;9.762;2022-12-18T05:43:12;14.77;;;6.55;;
33254;SDS011;19623;52.482;9.762;2022-12-18T05:45:38;13.85;;;6.75;;
33254;SDS011;19623;52.482;9.762;2022-12-18T05:48:04;17.10;;;7.22;;
33254;SDS011;19623;52.482;9.762;2022-12-18T05:50:33;16.60;;;7.35;;
33254;SDS011;19623;52.482;9.762;2022-12-18T05:52:59;15.25;;;7.05;;
33254;SDS011;19623;52.482;9.762;2022-12-18T05:55:25;16.85;;;7.28;;
33254;SDS011;19623;52.482;9.762;2022-12-18T05:57:51;16.65;;;7.03;;
33254;SDS011;19623;52.482;9.762;2022-12-18T06:00:16;14.05;;;6.50;;
33254;SDS011;19623;52.482;9.762;2022-12-18T06:02:45;12.60;;;6.72;;
33254;SDS011;19623;52.482;9.762;2022-12-18T06:05:12;19.20;;;7.65;;
33254;SDS011;19623;52.482;9.762;2022-12-18T06:07:37;13.60;;;7.07;;
33254;SDS011;19623;52.482;9.762;2022-12-18T06:10:03;13.45;;;6.60;;
33254;SDS011;19623;52.482;9.762;2022-12-18T06:12:29;14.40;;;6.60;;
33254;SDS011;19623;52.482;9.762;2022-12-18T06:14:55;14.80;;;6.88;;
33254;SDS011;19623;52.482;9.762;2022-12-18T06:17:21;14.75;;;6.93;;
33254;SDS011;19623;52.482;9.762;2022-12-18T06:19:47;15.30;;;6.95;;
33254;SDS011;19623;52.482;9.762;2022-12-18T06:22:12;15.68;;;6.50;;
33254;SDS011;19623;52.482;9.762;2022-12-18T06:24:38;16.63;;;7.40;;
33254;SDS011;19623;52.482;9.762;2022-12-18T06:27:04;16.75;;;7.40;;
33254;SDS011;19623;52.482;9.762;2022-12-18T06:29:29;19.35;;;6.55;;
33254;SDS011;19623;52.482;9.762;2022-12-18T06:31:55;11.55;;;5.75;;
33254;SDS011;19623;52.482;9.762;2022-12-18T06:34:20;12.52;;;6.35;;
33254;SDS011;19623;52.482;9.762;2022-12-18T06:36:46;13.80;;;7.18;;
33254;SDS011;19623;52.482;9.762;2022-12-18T06:39:12;13.85;;;5.90;;
33254;SDS011;19623;52.482;9.762;2022-12-18T06:41:37;15.80;;;6.72;;
33254;SDS011;19623;52.482;9.762;2022-12-18T06:44:03;16.60;;;6.63;;
33254;SDS011;19623;52.482;9.762;2022-12-18T06:46:28;14.05;;;6.70;;
33254;SDS011;19623;52.482;9.762;2022-12-18T06:48:54;19.30;;;6.10;;
33254;SDS011;19623;52.482;9.762;2022-12-18T06:51:20;12.98;;;6.28;;
33254;SDS011;19623;52.482;9.762;2022-12-18T06:53:47;17.58;;;6.53;;
33254;SDS011;19623;52.482;9.762;2022-12-18T06:56:13;16.60;;;6.97;;
33254;SDS011;19623;52.482;9.762;2022-12-18T06:58:39;14.48;;;6.60;;
33254;SDS011;19623;52.482;9.762;2022-12-18T07:01:05;15.93;;;6.43;;
33254;SDS011;19623;52.482;9.762;2022-12-18T07:03:32;13.57;;;6.57;;
33254;SDS011;19623;52.482;9.762;2022-12-18T07:05:59;15.98;;;6.20;;
33254;SDS011;19623;52.482;9.762;2022-12-18T07:08:24;16.63;;;6.90;;
33254;SDS011;19623;52.482;9.762;2022-12-18T07:10:50;12.65;;;6.68;;
33254;SDS011;19623;52.482;9.762;2022-12-18T07:13:16;14.80;;;6.78;;
33254;SDS011;19623;52.482;9.762;2022-12-18T07:15:42;18.17;;;6.65;;
33254;SDS011;19623;52.482;9.762;2022-12-18T07:18:08;16.08;;;6.93;;
33254;SDS011;19623;52.482;9.762;2022-12-18T07:20:34;15.27;;;6.30;;
33254;SDS011;19623;52.482;9.762;2022-12-18T07:23:01;16.73;;;6.82;;
33254;SDS011;19623;52.482;9.762;2022-12-18T07:25:28;14.98;;;6.38;;
33254;SDS011;19623;52.482;9.762;2022-12-18T07:27:54;13.70;;;6.78;;
33254;SDS011;19623;52.482;9.762;2022-12-18T07:30:20;15.23;;;6.85;;
33254;SDS011;19623;52.482;9.762;2022-12-18T07:32:45;17.42;;;7.63;;
33254;SDS011;19623;52.482;9.762;2022-12-18T07:35:11;16.60;;;7.15;;
33254;SDS011;19623;52.482;9.762;2022-12-18T07:37:36;13.00;;;6.20;;
33254;SDS011;19623;52.482;9.762;2022-12-18T07:40:02;15.32;;;6.80;;
33254;SDS011;19623;52.482;9.762;2022-12-18T07:42:28;12.88;;;6.45;;
33254;SDS011;19623;52.482;9.762;2022-12-18T07:45:00;12.43;;;6.28;;
33254;SDS011;19623;52.482;9.762;2022-12-18T07:47:26;14.13;;;6.68;;
33254;SDS011;19623;52.482;9.762;2022-12-18T07:49:52;11.93;;;6.13;;
33254;SDS011;19623;52.482;9.762;2022-12-18T07:52:19;11.10;;;5.75;;
33254;SDS011;19623;52.482;9.762;2022-12-18T07:54:45;13.48;;;5.88;;
33254;SDS011;19623;52.482;9.762;2022-12-18T07:57:13;15.50;;;6.60;;
33254;SDS011;19623;52.482;9.762;2022-12-18T07:59:39;13.07;;;6.15;;
33254;SDS011;19623;52.482;9.762;2022-12-18T08:02:04;13.45;;;7.20;;
33254;SDS011;19623;52.482;9.762;2022-12-18T08:04:30;13.70;;;6.05;;
33254;SDS011;19623;52.482;9.762;2022-12-18T08:06:56;16.58;;;7.35;;
33254;SDS011;19623;52.482;9.762;2022-12-18T08:09:22;11.50;;;6.57;;
33254;SDS011;19623;52.482;9.762;2022-12-18T08:11:47;10.25;;;5.70;;
33254;SDS011;19623;52.482;9.762;2022-12-18T08:14:13;12.35;;;6.25;;
33254;SDS011;19623;52.482;9.762;2022-12-18T08:16:39;17.55;;;6.55;;
33254;SDS011;19623;52.482;9.762;2022-12-18T08:19:05;15.13;;;7.25;;
33254;SDS011;19623;52.482;9.762;2022-12-18T08:21:31;13.32;;;6.88;;
33254;SDS011;19623;52.482;9.762;2022-12-18T08:23:58;15.95;;;7.03;;
33254;SDS011;19623;52.482;9.762;2022-12-18T08:26:26;16.80;;;7.82;;
33254;SDS011;19623;52.482;9.762;2022-12-18T08:28:54;14.50;;;7.13;;
33254;SDS011;19623;52.482;9.762;2022-12-18T08:31:21;14.27;;;6.50;;
33254;SDS011;19623;52.482;9.762;2022-12-18T08:33:48;14.48;;;6.45;;
33254;SDS011;19623;52.482;9.762;2022-12-18T08:36:15;20.25;;;9.38;;
33254;SDS011;19623;52.482;9.762;2022-12-18T08:38:42;13.80;;;6.97;;
33254;SDS011;19623;52.482;9.762;2022-12-18T08:41:09;20.55;;;7.20;;
33254;SDS011;19623;52.482;9.762;2022-12-18T08:43:36;18.38;;;7.63;;
33254;SDS011;19623;52.482;9.762;2022-12-18T08:46:21;20.05;;;7.43;;
33254;SDS011;19623;52.482;9.762;2022-12-18T08:48:50;18.33;;;8.38;;
33254;SDS011;19623;52.482;9.762;2022-12-18T08:51:17;19.15;;;7.13;;
33254;SDS011;19623;52.482;9.762;2022-12-18T08:53:43;15.75;;;7.35;;
33254;SDS011;19623;52.482;9.762;2022-12-18T08:56:09;10.20;;;5.95;;
33254;SDS011;19623;52.482;9.762;2022-12-18T08:58:36;17.02;;;7.05;;
33254;SDS011;19623;52.482;9.762;2022-12-18T09:01:11;20.77;;;7.25;;
33254;SDS011;19623;52.482;9.762;2022-12-18T09:03:38;15.32;;;6.53;;
33254;SDS011;19623;52.482;9.762;2022-12-18T09:06:04;18.52;;;6.78;;
33254;SDS011;19623;52.482;9.762;2022-12-18T09:08:30;17.08;;;6.45;;
33254;SDS011;19623;52.482;9.762;2022-12-18T09:10:55;12.88;;;6.05;;
33254;SDS011;19623;52.482;9.762;2022-12-18T09:13:21;21.75;;;7.28;;
33254;SDS011;19623;52.482;9.762;2022-12-18T09:15:48;15.48;;;6.90;;
33254;SDS011;19623;52.482;9.762;2022-12-18T09:18:16;13.77;;;6.57;;
33254;SDS011;19623;52.482;9.762;2022-12-18T09:20:43;15.40;;;7.35;;
33254;SDS011;19623;52.482;9.762;2022-12-18T09:23:10;12.02;;;6.38;;
33254;SDS011;19623;52.482;9.762;2022-12-18T09:25:38;13.23;;;5.85;;
33254;SDS011;19623;52.482;9.762;2022-12-18T09:28:06;12.80;;;6.32;;
33254;SDS011;19623;52.482;9.762;2022-12-18T09:30:39;16.00;;;6.75;;
33254;SDS011;19623;52.482;9.762;2022-12-18T09:33:06;18.90;;;6.63;;
33254;SDS011;19623;52.482;9.762;2022-12-18T09:35:35;14.35;;;6.20;;
33254;SDS011;19623;52.482;9.762;2022-12-18T09:38:01;12.27;;;6.85;;
33254;SDS011;19623;52.482;9.762;2022-12-18T09:40:28;14.23;;;6.53;;
33254;SDS011;19623;52.482;9.762;2022-12-18T09:43:01;12.27;;;6.93;;
33254;SDS011;19623;52.482;9.762;2022-12-18T09:45:43;12.60;;;5.95;;
33254;SDS011;19623;52.482;9.762;2022-12-18T09:48:18;13.77;;;6.45;;
33254;SDS011;19623;52.482;9.762;2022-12-18T09:50:48;13.38;;;7.07;;
33254;SDS011;19623;52.482;9.762;2022-12-18T09:53:18;13.75;;;6.47;;
33254;SDS011;19623;52.482;9.762;2022-12-18T09:55:47;14.27;;;7.88;;
33254;SDS011;19623;52.482;9.762;2022-12-18T10:01:10;14.85;;;7.50;;
33254;SDS011;19623;52.482;9.762;2022-12-18T10:03:46;16.70;;;7.18;;
33254;SDS011;19623;52.482;9.762;2022-12-18T10:14:34;11.73;;;6.07;;
33254;SDS011;19623;52.482;9.762;2022-12-18T10:20:01;13.90;;;6.57;;
33254;SDS011;19623;52.482;9.762;2022-12-18T10:25:28;15.30;;;7.07;;
33254;SDS011;19623;52.482;9.762;2022-12-18T10:28:16;13.77;;;6.25;;
33254;SDS011;19623;52.482;9.762;2022-12-18T10:30:43;14.00;;;6.82;;
33254;SDS011;19623;52.482;9.762;2022-12-18T10:33:13;13.85;;;6.05;;
33254;SDS011;19623;52.482;9.762;2022-12-18T10:35:42;15.32;;;8.00;;
33254;SDS011;19623;52.482;9.762;2022-12-18T10:43:23;12.20;;;5.85;;
33254;SDS011;19623;52.482;9.762;2022-12-18T10:48:47;12.95;;;5.95;;
33254;SDS011;19623;52.482;9.762;2022-12-18T10:51:28;13.20;;;5.90;;
33254;SDS011;19623;52.482;9.762;2022-12-18T10:54:05;10.13;;;5.22;;
33254;SDS011;19623;52.482;9.762;2022-12-18T10:59:06;15.18;;;4.95;;
33254;SDS011;19623;52.482;9.762;2022-12-18T11:04:23;10.23;;;5.35;;
33254;SDS011;19623;52.482;9.762;2022-12-18T11:07:01;10.50;;;5.18;;
33254;SDS011;19623;52.482;9.762;2022-12-18T11:09:35;11.15;;;5.88;;
33254;SDS011;19623;52.482;9.762;2022-12-18T11:12:16;14.48;;;6.28;;
33254;SDS011;19623;52.482;9.762;2022-12-18T11:17:20;12.05;;;5.72;;
33254;SDS011;19623;52.482;9.762;2022-12-18T11:19:52;11.68;;;5.85;;
33254;SDS011;19623;52.482;9.762;2022-12-18T11:22:32;10.07;;;5.40;;
33254;SDS011;19623;52.482;9.762;2022-12-18T11:25:01;14.05;;;6.05;;
33254;SDS011;19623;52.482;9.762;2022-12-18T11:27:31;12.02;;;6.30;;
33254;SDS011;19623;52.482;9.762;2022-12-18T11:30:07;9.20;;;5.28;;
33254;SDS011;19623;52.482;9.762;2022-12-18T11:32:43;13.40;;;6.13;;
33254;SDS011;19623;52.482;9.762;2022-12-18T11:35:20;11.00;;;6.15;;
33254;SDS011;19623;52.482;9.762;2022-12-18T11:37:53;13.40;;;6.10;;
33254;SDS011;19623;52.482;9.762;2022-12-18T11:40:29;11.75;;;6.45;;
33254;SDS011;19623;52.482;9.762;2022-12-18T11:43:01;15.70;;;5.82;;
33254;SDS011;19623;52.482;9.762;2022-12-18T11:45:35;14.18;;;6.53;;
33254;SDS011;19623;52.482;9.762;2022-12-18T11:48:18;14.43;;;6.60;;
33254;SDS011;19623;52.482;9.762;2022-12-18T11:50:50;13.80;;;7.20;;
33254;SDS011;19623;52.482;9.762;2022-12-18T11:53:18;15.27;;;7.18;;
33254;SDS011;19623;52.482;9.762;2022-12-18T11:55:54;14.60;;;7.10;;
33254;SDS011;19623;52.482;9.762;2022-12-18T12:01:18;13.00;;;6.90;;
33254;SDS011;19623;52.482;9.762;2022-12-18T12:09:56;22.30;;;8.98;;
33254;SDS011;19623;52.482;9.762;2022-12-18T12:15:32;42.00;;;17.30;;
33254;SDS011;19623;52.482;9.762;2022-12-18T12:22:29;19.33;;;8.70;;
33254;SDS011;19623;52.482;9.762;2022-12-18T12:25:05;19.05;;;8.77;;
33254;SDS011;19623;52.482;9.762;2022-12-18T12:30:22;24.98;;;9.25;;
33254;SDS011;19623;52.482;9.762;2022-12-18T12:33:05;16.02;;;8.25;;
33254;SDS011;19623;52.482;9.762;2022-12-18T12:35:52;18.67;;;7.60;;
33254;SDS011;19623;52.482;9.762;2022-12-18T12:38:57;16.77;;;7.80;;
33254;SDS011;19623;52.482;9.762;2022-12-18T12:41:27;14.32;;;6.88;;
33254;SDS011;19623;52.482;9.762;2022-12-18T12:44:32;13.63;;;6.80;;
33254;SDS011;19623;52.482;9.762;2022-12-18T12:47:07;20.50;;;7.82;;
33254;SDS011;19623;52.482;9.762;2022-12-18T12:49:39;13.13;;;6.82;;
33254;SDS011;19623;52.482;9.762;2022-12-18T12:52:12;17.40;;;7.65;;
33254;SDS011;19623;52.482;9.762;2022-12-18T12:54:42;20.75;;;7.75;;
33254;SDS011;19623;52.482;9.762;2022-12-18T12:57:13;18.33;;;8.07;;
33254;SDS011;19623;52.482;9.762;2022-12-18T13:08:07;22.40;;;8.27;;
33254;SDS011;19623;52.482;9.762;2022-12-18T13:13:05;19.88;;;8.32;;
33254;SDS011;19623;52.482;9.762;2022-12-18T13:20:35;18.80;;;9.20;;
33254;SDS011;19623;52.482;9.762;2022-12-18T13:23:19;21.50;;;8.75;;
33254;SDS011;19623;52.482;9.762;2022-12-18T13:25:51;19.40;;;8.50;;
33254;SDS011;19623;52.482;9.762;2022-12-18T13:34:14;17.52;;;8.70;;
33254;SDS011;19623;52.482;9.762;2022-12-18T13:36:48;19.83;;;8.68;;
33254;SDS011;19623;52.482;9.762;2022-12-18T13:41:47;24.20;;;9.25;;
33254;SDS011;19623;52.482;9.762;2022-12-18T13:47:05;15.45;;;8.13;;
33254;SDS011;19623;52.482;9.762;2022-12-18T13:49:55;19.30;;;8.27;;
33254;SDS011;19623;52.482;9.762;2022-12-18T13:52:27;22.35;;;8.77;;
33254;SDS011;19623;52.482;9.762;2022-12-18T13:54:59;18.88;;;9.25;;
33254;SDS011;19623;52.482;9.762;2022-12-18T13:57:35;18.55;;;9.15;;
33254;SDS011;19623;52.482;9.762;2022-12-18T14:02:50;21.33;;;9.15;;
33254;SDS011;19623;52.482;9.762;2022-12-18T14:05:23;22.35;;;8.90;;
33254;SDS011;19623;52.482;9.762;2022-12-18T14:07:54;21.83;;;9.32;;
33254;SDS011;19623;52.482;9.762;2022-12-18T14:10:26;18.75;;;8.82;;
33254;SDS011;19623;52.482;9.762;2022-12-18T14:12:52;24.63;;;9.25;;
33254;SDS011;19623;52.482;9.762;2022-12-18T14:18:02;24.90;;;9.85;;
33254;SDS011;19623;52.482;9.762;2022-12-18T14:20:44;22.35;;;9.90;;
33254;SDS011;19623;52.482;9.762;2022-12-18T14:25:59;22.00;;;9.48;;
33254;SDS011;19623;52.482;9.762;2022-12-18T14:28:44;29.67;;;12.00;;
33254;SDS011;19623;52.482;9.762;2022-12-18T14:31:23;27.23;;;11.68;;
33254;SDS011;19623;52.482;9.762;2022-12-18T14:36:23;32.40;;;12.57;;
33254;SDS011;19623;52.482;9.762;2022-12-18T14:38:51;18.52;;;9.57;;
33254;SDS011;19623;52.482;9.762;2022-12-18T14:41:24;34.42;;;10.50;;
33254;SDS011;19623;52.482;9.762;2022-12-18T14:43:51;27.40;;;10.75;;
33254;SDS011;19623;52.482;9.762;2022-12-18T14:46:34;23.60;;;10.18;;
33254;SDS011;19623;52.482;9.762;2022-12-18T14:49:02;23.88;;;10.27;;
33254;SDS011;19623;52.482;9.762;2022-12-18T14:51:33;25.20;;;10.07;;
33254;SDS011;19623;52.482;9.762;2022-12-18T14:54:03;23.38;;;10.35;;
33254;SDS011;19623;52.482;9.762;2022-12-18T14:56:34;26.85;;;12.15;;
33254;SDS011;19623;52.482;9.762;2022-12-18T14:59:02;25.83;;;11.02;;
33254;SDS011;19623;52.482;9.762;2022-12-18T15:04:39;22.85;;;11.20;;
33254;SDS011;19623;52.482;9.762;2022-12-18T15:07:14;25.05;;;12.98;;
33254;SDS011;19623;52.482;9.762;2022-12-18T15:10:08;29.48;;;12.00;;
33254;SDS011;19623;52.482;9.762;2022-12-18T15:12:43;26.35;;;10.95;;
33254;SDS011;19623;52.482;9.762;2022-12-18T15:20:47;23.08;;;10.88;;
33254;SDS011;19623;52.482;9.762;2022-12-18T15:23:25;28.33;;;12.25;;
33254;SDS011;19623;52.482;9.762;2022-12-18T15:25:55;23.50;;;11.02;;
33254;SDS011;19623;52.482;9.762;2022-12-18T15:28:23;27.42;;;11.82;;
33254;SDS011;19623;52.482;9.762;2022-12-18T15:38:55;22.00;;;10.82;;
33254;SDS011;19623;52.482;9.762;2022-12-18T15:41:22;32.38;;;13.05;;
33254;SDS011;19623;52.482;9.762;2022-12-18T15:43:49;22.50;;;10.75;;
33254;SDS011;19623;52.482;9.762;2022-12-18T15:46:18;25.42;;;11.07;;
33254;SDS011;19623;52.482;9.762;2022-12-18T15:48:48;27.48;;;13.18;;
33254;SDS011;19623;52.482;9.762;2022-12-18T15:54:18;29.83;;;14.18;;
33254;SDS011;19623;52.482;9.762;2022-12-18T15:57:04;28.88;;;14.95;;
33254;SDS011;19623;52.482;9.762;2022-12-18T15:59:48;29.02;;;12.90;;
33254;SDS011;19623;52.482;9.762;2022-12-18T16:02:18;33.35;;;12.90;;
33254;SDS011;19623;52.482;9.762;2022-12-18T16:04:45;33.35;;;13.45;;
33254;SDS011;19623;52.482;9.762;2022-12-18T16:07:11;29.80;;;13.85;;
33254;SDS011;19623;52.482;9.762;2022-12-18T16:09:37;29.70;;;12.88;;
33254;SDS011;19623;52.482;9.762;2022-12-18T16:12:03;27.08;;;12.20;;
33254;SDS011;19623;52.482;9.762;2022-12-18T16:14:39;29.83;;;11.68;;
33254;SDS011;19623;52.482;9.762;2022-12-18T16:17:05;37.25;;;16.95;;
33254;SDS011;19623;52.482;9.762;2022-12-18T16:19:33;62.17;;;27.05;;
33254;SDS011;19623;52.482;9.762;2022-12-18T16:21:59;30.67;;;12.82;;
33254;SDS011;19623;52.482;9.762;2022-12-18T16:24:28;28.25;;;11.60;;
33254;SDS011;19623;52.482;9.762;2022-12-18T16:26:57;29.48;;;12.60;;
33254;SDS011;19623;52.482;9.762;2022-12-18T16:29:24;26.38;;;12.77;;
33254;SDS011;19623;52.482;9.762;2022-12-18T16:31:58;38.42;;;14.68;;
33254;SDS011;19623;52.482;9.762;2022-12-18T16:34:26;22.42;;;11.55;;
33254;SDS011;19623;52.482;9.762;2022-12-18T16:36:55;30.33;;;13.43;;
33254;SDS011;19623;52.482;9.762;2022-12-18T16:39:22;24.50;;;11.63;;
33254;SDS011;19623;52.482;9.762;2022-12-18T16:41:48;30.77;;;11.43;;
33254;SDS011;19623;52.482;9.762;2022-12-18T16:44:14;35.00;;;14.65;;
33254;SDS011;19623;52.482;9.762;2022-12-18T16:46:40;26.13;;;11.90;;
33254;SDS011;19623;52.482;9.762;2022-12-18T16:49:10;29.60;;;11.55;;
33254;SDS011;19623;52.482;9.762;2022-12-18T16:51:37;30.23;;;12.63;;
33254;SDS011;19623;52.482;9.762;2022-12-18T16:54:03;25.40;;;12.20;;
33254;SDS011;19623;52.482;9.762;2022-12-18T16:56:29;25.45;;;11.02;;
33254;SDS011;19623;52.482;9.762;2022-12-18T16:58:56;28.02;;;13.20;;